sensor_id;sensor_type;location;lat;lon;timestamp;pressure;altitude;pressure_sealevel;temperature;humidity
47104;BME280;32853;52.164;5.400;2023-02-26T00:01:56;101772.47;;;2.65;100.00
47104;BME280;32853;52.164;5.400;2023-02-26T00:04:32;101823.50;;;2.95;100.00
47104;BME280;32853;52.164;5.400;2023-02-26T00:06:59;101857.16;;;3.03;100.00
47104;BME280;32853;52.164;5.400;2023-02-26T00:09:37;101866.84;;;3.34;100.00
47104;BME280;32853;52.164;5.400;2023-02-26T00:12:05;101863.34;;;3.25;100.00
47104;BME280;32853;52.164;5.400;2023-02-26T00:14:40;101884.03;;;3.32;100.00
47104;BME280;32853;52.164;5.400;2023-02-26T00:19:40;101894.88;;;2.84;100.00
47104;BME280;32853;52.164;5.400;2023-02-26T00:25:15;101849.94;;;2.63;100.00
47104;BME280;32853;52.164;5.400;2023-02-26T00:27:40;101915.66;;;2.95;100.00
47104;BME280;32853;52.164;5.400;2023-02-26T00:30:08;101863.81;;;2.76;100.00
47104;BME280;32853;52.164;5.400;2023-02-26T00:33:01;101927.81;;;3.09;100.00
47104;BME280;32853;52.164;5.400;2023-02-26T00:35:27;101932.91;;;2.99;100.00
47104;BME280;32853;52.164;5.400;2023-02-26T00:42:53;101886.16;;;2.70;99.15
47104;BME280;32853;52.164;5.400;2023-02-26T00:45:28;101950.28;;;3.13;99.32
47104;BME280;32853;52.164;5.400;2023-02-26T00:48:27;101942.78;;;3.47;95.63
47104;BME280;32853;52.164;5.400;2023-02-26T00:51:07;101826.75;;;2.70;95.95
47104;BME280;32853;52.164;5.400;2023-02-26T00:53:48;101948.47;;;3.06;98.58
47104;BME280;32853;52.164;5.400;2023-02-26T00:56:17;101956.31;;;3.14;99.92
47104;BME280;32853;52.164;5.400;2023-02-26T00:58:58;101750.09;;;1.71;100.00
47104;BME280;32853;52.164;5.400;2023-02-26T01:01:30;101731.28;;;1.79;100.00
47104;BME280;32853;52.164;5.400;2023-02-26T01:03:56;101863.66;;;2.59;100.00
47104;BME280;32853;52.164;5.400;2023-02-26T01:06:27;101951.09;;;3.09;100.00
47104;BME280;32853;52.164;5.400;2023-02-26T01:09:20;101913.72;;;2.74;100.00
47104;BME280;32853;52.164;5.400;2023-02-26T01:11:49;101951.59;;;2.72;100.00
47104;BME280;32853;52.164;5.400;2023-02-26T01:14:14;101962.00;;;2.78;100.00
47104;BME280;32853;52.164;5.400;2023-02-26T01:16:48;101960.31;;;2.81;100.00
47104;BME280;32853;52.164;5.400;2023-02-26T01:19:29;101948.28;;;2.85;100.00
47104;BME280;32853;52.164;5.400;2023-02-26T01:22:18;101952.47;;;2.72;100.00
47104;BME280;32853;52.164;5.400;2023-02-26T01:24:46;101901.47;;;2.51;100.00
47104;BME280;32853;52.164;5.400;2023-02-26T01:27:12;101971.50;;;2.80;100.00
47104;BME280;32853;52.164;5.400;2023-02-26T01:29:38;101883.22;;;2.33;100.00
47104;BME280;32853;52.164;5.400;2023-02-26T01:32:07;101975.84;;;2.87;100.00
47104;BME280;32853;52.164;5.400;2023-02-26T01:37:20;101973.66;;;2.44;100.00
47104;BME280;32853;52.164;5.400;2023-02-26T01:40:28;101970.53;;;2.71;100.00
47104;BME280;32853;52.164;5.400;2023-02-26T01:43:12;101942.94;;;2.67;99.45
47104;BME280;32853;52.164;5.400;2023-02-26T01:46:05;101961.91;;;2.70;97.47
47104;BME280;32853;52.164;5.400;2023-02-26T01:48:47;101920.03;;;2.20;98.66
47104;BME280;32853;52.164;5.400;2023-02-26T01:51:13;101989.56;;;2.79;98.63
47104;BME280;32853;52.164;5.400;2023-02-26T01:53:39;101900.97;;;2.09;100.00
47104;BME280;32853;52.164;5.400;2023-02-26T01:56:10;101930.31;;;2.15;98.38
47104;BME280;32853;52.164;5.400;2023-02-26T01:58:45;101982.47;;;2.61;96.01
47104;BME280;32853;52.164;5.400;2023-02-26T02:01:13;101951.50;;;2.62;92.61
47104;BME280;32853;52.164;5.400;2023-02-26T02:03:40;101953.97;;;2.52;92.02
47104;BME280;32853;52.164;5.400;2023-02-26T02:06:19;102000.75;;;2.78;91.35
47104;BME280;32853;52.164;5.400;2023-02-26T02:08:45;102005.81;;;2.70;88.33
47104;BME280;32853;52.164;5.400;2023-02-26T02:11:13;101971.25;;;2.56;88.37
47104;BME280;32853;52.164;5.400;2023-02-26T02:19:23;102005.81;;;2.70;86.98
47104;BME280;32853;52.164;5.400;2023-02-26T02:24:42;102016.59;;;2.34;89.18
47104;BME280;32853;52.164;5.400;2023-02-26T02:33:32;102027.97;;;2.51;84.18
47104;BME280;32853;52.164;5.400;2023-02-26T02:36:06;102039.78;;;2.32;85.46
47104;BME280;32853;52.164;5.400;2023-02-26T02:38:56;102027.09;;;2.49;83.50
47104;BME280;32853;52.164;5.400;2023-02-26T02:41:31;101980.06;;;2.03;84.61
47104;BME280;32853;52.164;5.400;2023-02-26T02:44:18;102034.75;;;2.42;83.15
47104;BME280;32853;52.164;5.400;2023-02-26T02:46:49;101998.72;;;1.87;82.84
47104;BME280;32853;52.164;5.400;2023-02-26T02:50:01;102006.16;;;2.28;82.07
47104;BME280;32853;52.164;5.400;2023-02-26T02:52:43;102050.09;;;2.32;81.71
47104;BME280;32853;52.164;5.400;2023-02-26T02:55:18;101998.00;;;1.97;81.29
47104;BME280;32853;52.164;5.400;2023-02-26T02:58:28;102060.66;;;2.49;80.70
47104;BME280;32853;52.164;5.400;2023-02-26T03:00:57;102069.63;;;2.11;81.65
47104;BME280;32853;52.164;5.400;2023-02-26T03:03:42;102061.06;;;2.16;81.73
47104;BME280;32853;52.164;5.400;2023-02-26T03:06:09;102073.13;;;2.16;82.48
47104;BME280;32853;52.164;5.400;2023-02-26T03:08:39;101983.09;;;1.77;81.13
47104;BME280;32853;52.164;5.400;2023-02-26T03:11:14;102007.59;;;2.06;80.33
47104;BME280;32853;52.164;5.400;2023-02-26T03:14:01;102064.63;;;2.23;81.59
47104;BME280;32853;52.164;5.400;2023-02-26T03:25:47;102073.00;;;2.10;82.50
47104;BME280;32853;52.164;5.400;2023-02-26T03:28:30;102087.25;;;1.85;82.32
47104;BME280;32853;52.164;5.400;2023-02-26T03:31:07;102077.56;;;2.27;79.99
47104;BME280;32853;52.164;5.400;2023-02-26T03:36:50;102088.63;;;2.17;80.32
47104;BME280;32853;52.164;5.400;2023-02-26T03:39:37;102066.97;;;2.08;79.72
47104;BME280;32853;52.164;5.400;2023-02-26T03:42:08;102099.66;;;2.07;79.62
47104;BME280;32853;52.164;5.400;2023-02-26T03:45:09;102086.66;;;2.01;80.05
47104;BME280;32853;52.164;5.400;2023-02-26T03:47:40;102101.63;;;2.23;79.05
47104;BME280;32853;52.164;5.400;2023-02-26T03:53:04;102105.56;;;2.00;80.05
47104;BME280;32853;52.164;5.400;2023-02-26T03:55:41;102108.78;;;1.87;80.18
47104;BME280;32853;52.164;5.400;2023-02-26T03:58:12;102115.66;;;1.86;80.31
47104;BME280;32853;52.164;5.400;2023-02-26T04:00:41;102113.66;;;1.68;81.33
47104;BME280;32853;52.164;5.400;2023-02-26T04:03:29;102115.56;;;1.80;81.61
47104;BME280;32853;52.164;5.400;2023-02-26T04:05:58;102112.38;;;1.96;80.17
47104;BME280;32853;52.164;5.400;2023-02-26T04:08:24;102110.91;;;2.11;79.56
47104;BME280;32853;52.164;5.400;2023-02-26T04:10:58;102041.97;;;1.48;80.37
47104;BME280;32853;52.164;5.400;2023-02-26T04:13:32;102072.78;;;1.93;79.01
47104;BME280;32853;52.164;5.400;2023-02-26T04:15:57;102090.00;;;1.95;79.38
47104;BME280;32853;52.164;5.400;2023-02-26T04:18:22;102131.63;;;1.65;82.54
47104;BME280;32853;52.164;5.400;2023-02-26T04:20:52;102123.69;;;1.53;84.33
47104;BME280;32853;52.164;5.400;2023-02-26T04:23:27;102137.09;;;1.82;83.06
47104;BME280;32853;52.164;5.400;2023-02-26T04:25:54;102137.09;;;1.82;82.52
47104;BME280;32853;52.164;5.400;2023-02-26T04:28:20;102141.66;;;1.98;82.31
47104;BME280;32853;52.164;5.400;2023-02-26T04:30:46;102093.38;;;1.40;83.78
47104;BME280;32853;52.164;5.400;2023-02-26T04:33:13;102157.72;;;1.82;82.89
47104;BME280;32853;52.164;5.400;2023-02-26T04:35:39;102163.56;;;1.72;82.68
47104;BME280;32853;52.164;5.400;2023-02-26T04:38:05;102164.91;;;2.00;80.37
47104;BME280;32853;52.164;5.400;2023-02-26T04:40:30;102163.03;;;1.91;79.79
47104;BME280;32853;52.164;5.400;2023-02-26T04:43:00;102109.03;;;1.04;84.19
47104;BME280;32853;52.164;5.400;2023-02-26T04:45:25;102172.06;;;1.66;83.17
47104;BME280;32853;52.164;5.400;2023-02-26T04:47:57;102078.19;;;1.08;83.55
47104;BME280;32853;52.164;5.400;2023-02-26T04:50:22;102166.00;;;1.66;82.19
47104;BME280;32853;52.164;5.400;2023-02-26T04:52:48;102048.56;;;0.86;81.83
47104;BME280;32853;52.164;5.400;2023-02-26T04:55:13;102032.84;;;0.71;80.52
47104;BME280;32853;52.164;5.400;2023-02-26T04:57:39;102188.13;;;1.53;81.37
47104;BME280;32853;52.164;5.400;2023-02-26T05:00:07;102192.66;;;1.65;80.64
47104;BME280;32853;52.164;5.400;2023-02-26T05:02:32;102190.94;;;1.65;81.29
47104;BME280;32853;52.164;5.400;2023-02-26T05:05:13;102184.97;;;1.66;80.24
47104;BME280;32853;52.164;5.400;2023-02-26T05:07:44;102195.19;;;1.62;80.50
47104;BME280;32853;52.164;5.400;2023-02-26T05:10:20;102168.16;;;1.41;81.41
47104;BME280;32853;52.164;5.400;2023-02-26T05:12:45;102195.16;;;1.60;80.80
47104;BME280;32853;52.164;5.400;2023-02-26T05:15:11;102213.22;;;1.62;80.97
47104;BME280;32853;52.164;5.400;2023-02-26T05:17:36;102213.34;;;1.68;79.47
47104;BME280;32853;52.164;5.400;2023-02-26T05:20:09;102213.53;;;1.33;81.22
47104;BME280;32853;52.164;5.400;2023-02-26T05:22:38;102201.66;;;1.41;80.65
47104;BME280;32853;52.164;5.400;2023-02-26T05:25:04;102215.13;;;1.70;80.07
47104;BME280;32853;52.164;5.400;2023-02-26T05:27:30;102222.91;;;1.75;79.64
47104;BME280;32853;52.164;5.400;2023-02-26T05:29:56;102212.56;;;1.72;82.25
47104;BME280;32853;52.164;5.400;2023-02-26T05:32:21;102177.59;;;1.41;80.86
47104;BME280;32853;52.164;5.400;2023-02-26T05:34:46;102176.50;;;1.28;81.46
47104;BME280;32853;52.164;5.400;2023-02-26T05:37:12;102224.72;;;1.78;80.56
47104;BME280;32853;52.164;5.400;2023-02-26T05:39:41;102160.81;;;1.17;81.23
47104;BME280;32853;52.164;5.400;2023-02-26T05:42:06;102221.09;;;1.68;82.15
47104;BME280;32853;52.164;5.400;2023-02-26T05:44:32;102234.94;;;1.73;81.43
47104;BME280;32853;52.164;5.400;2023-02-26T05:47:11;102191.50;;;1.49;80.88
47104;BME280;32853;52.164;5.400;2023-02-26T05:49:42;102218.34;;;1.59;82.23
47104;BME280;32853;52.164;5.400;2023-02-26T05:52:08;102228.06;;;1.73;82.96
47104;BME280;32853;52.164;5.400;2023-02-26T05:54:48;102267.06;;;1.90;83.31
47104;BME280;32853;52.164;5.400;2023-02-26T05:57:17;102210.59;;;1.59;83.62
47104;BME280;32853;52.164;5.400;2023-02-26T05:59:42;102269.31;;;1.73;84.85
47104;BME280;32853;52.164;5.400;2023-02-26T06:02:17;102271.13;;;1.78;83.51
47104;BME280;32853;52.164;5.400;2023-02-26T06:04:43;102280.22;;;1.59;83.58
47104;BME280;32853;52.164;5.400;2023-02-26T06:07:09;102236.66;;;1.30;82.02
47104;BME280;32853;52.164;5.400;2023-02-26T06:09:48;102288.13;;;1.68;82.53
47104;BME280;32853;52.164;5.400;2023-02-26T06:12:23;102274.72;;;1.43;83.17
47104;BME280;32853;52.164;5.400;2023-02-26T06:14:55;102277.09;;;1.33;84.78
47104;BME280;32853;52.164;5.400;2023-02-26T06:17:20;102295.44;;;1.47;83.94
47104;BME280;32853;52.164;5.400;2023-02-26T06:19:46;102272.47;;;1.18;85.13
47104;BME280;32853;52.164;5.400;2023-02-26T06:22:16;102246.16;;;0.92;87.28
47104;BME280;32853;52.164;5.400;2023-02-26T06:24:49;102304.28;;;1.59;83.51
47104;BME280;32853;52.164;5.400;2023-02-26T06:27:14;102303.09;;;1.43;84.76
47104;BME280;32853;52.164;5.400;2023-02-26T06:29:40;102308.56;;;1.57;84.70
47104;BME280;32853;52.164;5.400;2023-02-26T06:32:05;102304.03;;;1.08;88.05
47104;BME280;32853;52.164;5.400;2023-02-26T06:34:33;102270.81;;;0.81;90.61
47104;BME280;32853;52.164;5.400;2023-02-26T06:37:00;102264.66;;;0.76;90.46
47104;BME280;32853;52.164;5.400;2023-02-26T06:39:26;102331.78;;;1.20;91.00
47104;BME280;32853;52.164;5.400;2023-02-26T06:41:51;102301.31;;;1.00;89.77
47104;BME280;32853;52.164;5.400;2023-02-26T06:44:16;102292.28;;;0.81;92.87
47104;BME280;32853;52.164;5.400;2023-02-26T06:46:42;102325.25;;;0.98;95.21
47104;BME280;32853;52.164;5.400;2023-02-26T06:49:07;102325.44;;;1.05;95.85
47104;BME280;32853;52.164;5.400;2023-02-26T06:51:33;102343.00;;;0.85;98.71
47104;BME280;32853;52.164;5.400;2023-02-26T06:54:03;102231.69;;;0.23;100.00
47104;BME280;32853;52.164;5.400;2023-02-26T06:56:30;102304.53;;;0.92;98.21
47104;BME280;32853;52.164;5.400;2023-02-26T06:58:56;102344.19;;;1.00;98.64
47104;BME280;32853;52.164;5.400;2023-02-26T07:01:27;102312.91;;;0.83;98.79
47104;BME280;32853;52.164;5.400;2023-02-26T07:04:00;102352.75;;;0.99;100.00
47104;BME280;32853;52.164;5.400;2023-02-26T07:06:33;102342.66;;;1.08;99.09
47104;BME280;32853;52.164;5.400;2023-02-26T07:09:00;102307.56;;;0.75;100.00
47104;BME280;32853;52.164;5.400;2023-02-26T07:11:27;102376.47;;;1.22;100.00
47104;BME280;32853;52.164;5.400;2023-02-26T07:14:10;102365.66;;;1.36;99.59
47104;BME280;32853;52.164;5.400;2023-02-26T07:16:36;102381.00;;;1.32;99.35
47104;BME280;32853;52.164;5.400;2023-02-26T07:19:07;102389.56;;;1.29;100.00
47104;BME280;32853;52.164;5.400;2023-02-26T07:22:02;102388.47;;;1.20;100.00
47104;BME280;32853;52.164;5.400;2023-02-26T07:24:28;102383.94;;;1.45;99.17
47104;BME280;32853;52.164;5.400;2023-02-26T07:26:54;102390.47;;;1.33;100.00
47104;BME280;32853;52.164;5.400;2023-02-26T07:29:19;102343.50;;;1.07;100.00
47104;BME280;32853;52.164;5.400;2023-02-26T07:31:45;102379.06;;;1.22;100.00
47104;BME280;32853;52.164;5.400;2023-02-26T07:34:17;102394.19;;;1.44;100.00
47104;BME280;32853;52.164;5.400;2023-02-26T07:36:43;102346.47;;;1.22;99.84
47104;BME280;32853;52.164;5.400;2023-02-26T07:39:11;102407.06;;;1.44;100.00
47104;BME280;32853;52.164;5.400;2023-02-26T07:41:36;102400.41;;;1.54;100.00
47104;BME280;32853;52.164;5.400;2023-02-26T07:44:02;102411.03;;;1.30;100.00
47104;BME280;32853;52.164;5.400;2023-02-26T07:46:30;102405.81;;;1.64;98.78
47104;BME280;32853;52.164;5.400;2023-02-26T07:48:56;102416.44;;;1.40;99.90
47104;BME280;32853;52.164;5.400;2023-02-26T07:51:21;102290.75;;;0.90;100.00
47104;BME280;32853;52.164;5.400;2023-02-26T07:53:46;102425.50;;;1.61;99.41
47104;BME280;32853;52.164;5.400;2023-02-26T07:56:12;102365.25;;;1.18;99.85
47104;BME280;32853;52.164;5.400;2023-02-26T07:58:39;102363.81;;;1.31;99.17
47104;BME280;32853;52.164;5.400;2023-02-26T08:01:04;102412.28;;;1.85;99.22
47104;BME280;32853;52.164;5.400;2023-02-26T08:03:31;102369.59;;;1.58;97.55
47104;BME280;32853;52.164;5.400;2023-02-26T08:06:01;102369.72;;;1.66;97.68
47104;BME280;32853;52.164;5.400;2023-02-26T08:08:27;102420.69;;;1.76;98.56
47104;BME280;32853;52.164;5.400;2023-02-26T08:11:04;102388.34;;;1.92;96.00
47104;BME280;32853;52.164;5.400;2023-02-26T08:13:32;102438.56;;;2.09;95.01
47104;BME280;32853;52.164;5.400;2023-02-26T08:16:05;102449.91;;;2.16;93.74
47104;BME280;32853;52.164;5.400;2023-02-26T08:18:38;102449.72;;;2.50;92.08
47104;BME280;32853;52.164;5.400;2023-02-26T08:21:13;102465.38;;;2.58;93.08
47104;BME280;32853;52.164;5.400;2023-02-26T08:23:48;102455.66;;;2.45;93.52
47104;BME280;32853;52.164;5.400;2023-02-26T08:26:27;102467.72;;;2.44;91.06
47104;BME280;32853;52.164;5.400;2023-02-26T08:28:53;102471.69;;;2.74;88.73
47104;BME280;32853;52.164;5.400;2023-02-26T08:31:22;102481.81;;;2.63;86.77
47104;BME280;32853;52.164;5.400;2023-02-26T08:33:47;102485.63;;;2.80;84.95
47104;BME280;32853;52.164;5.400;2023-02-26T08:36:16;102375.66;;;2.01;84.77
47104;BME280;32853;52.164;5.400;2023-02-26T08:38:43;102406.63;;;2.46;82.47
47104;BME280;32853;52.164;5.400;2023-02-26T08:41:28;102481.00;;;3.12;80.03
47104;BME280;32853;52.164;5.400;2023-02-26T08:43:56;102471.91;;;2.86;77.48
47104;BME280;32853;52.164;5.400;2023-02-26T08:46:26;102462.81;;;2.59;75.23
47104;BME280;32853;52.164;5.400;2023-02-26T08:49:03;102492.31;;;3.19;74.90
47104;BME280;32853;52.164;5.400;2023-02-26T08:51:29;102491.47;;;3.20;73.37
47104;BME280;32853;52.164;5.400;2023-02-26T08:53:54;102447.16;;;2.99;72.05
47104;BME280;32853;52.164;5.400;2023-02-26T08:56:24;102462.78;;;3.05;67.09
47104;BME280;32853;52.164;5.400;2023-02-26T08:58:49;102509.03;;;3.39;69.26
47104;BME280;32853;52.164;5.400;2023-02-26T09:01:30;102498.00;;;3.49;67.77
47104;BME280;32853;52.164;5.400;2023-02-26T09:03:57;102505.34;;;3.25;66.42
47104;BME280;32853;52.164;5.400;2023-02-26T09:06:23;102475.56;;;2.97;64.88
47104;BME280;32853;52.164;5.400;2023-02-26T09:08:48;102528.28;;;3.55;64.91
47104;BME280;32853;52.164;5.400;2023-02-26T09:11:14;102509.47;;;3.14;64.28
47104;BME280;32853;52.164;5.400;2023-02-26T09:13:47;102501.13;;;3.30;63.73
47104;BME280;32853;52.164;5.400;2023-02-26T09:16:17;102476.16;;;3.32;63.96
47104;BME280;32853;52.164;5.400;2023-02-26T09:18:50;102533.69;;;3.70;63.60
47104;BME280;32853;52.164;5.400;2023-02-26T09:21:16;102538.31;;;3.91;62.76
47104;BME280;32853;52.164;5.400;2023-02-26T09:23:42;102487.78;;;3.59;61.77
47104;BME280;32853;52.164;5.400;2023-02-26T09:26:07;102538.28;;;3.88;61.44
47104;BME280;32853;52.164;5.400;2023-02-26T09:28:44;102540.34;;;4.12;60.73
47104;BME280;32853;52.164;5.400;2023-02-26T09:31:23;102532.59;;;4.12;60.55
47104;BME280;32853;52.164;5.400;2023-02-26T09:34:01;102456.91;;;3.69;59.85
47104;BME280;32853;52.164;5.400;2023-02-26T09:36:26;102543.31;;;4.43;59.88
47104;BME280;32853;52.164;5.400;2023-02-26T09:38:52;102382.34;;;3.42;59.83
47104;BME280;32853;52.164;5.400;2023-02-26T09:41:31;102536.69;;;4.63;59.12
47104;BME280;32853;52.164;5.400;2023-02-26T09:44:10;102472.06;;;4.04;57.52
47104;BME280;32853;52.164;5.400;2023-02-26T09:49:31;102489.13;;;4.56;57.87
47104;BME280;32853;52.164;5.400;2023-02-26T09:52:36;102546.28;;;4.72;57.34
47104;BME280;32853;52.164;5.400;2023-02-26T09:55:34;102545.63;;;4.89;57.73
47104;BME280;32853;52.164;5.400;2023-02-26T09:58:11;102555.41;;;5.16;58.29
47104;BME280;32853;52.164;5.400;2023-02-26T10:03:35;102553.81;;;5.31;56.69
47104;BME280;32853;52.164;5.400;2023-02-26T10:12:10;102569.28;;;5.20;56.04
47104;BME280;32853;52.164;5.400;2023-02-26T10:14:54;102479.97;;;4.89;55.87
47104;BME280;32853;52.164;5.400;2023-02-26T10:20:41;102545.13;;;5.24;55.70
47104;BME280;32853;52.164;5.400;2023-02-26T10:26:31;102538.41;;;5.47;54.35
47104;BME280;32853;52.164;5.400;2023-02-26T10:34:53;102571.63;;;5.88;53.95
47104;BME280;32853;52.164;5.400;2023-02-26T10:43:34;102583.09;;;6.16;52.50
47104;BME280;32853;52.164;5.400;2023-02-26T10:51:38;102592.53;;;6.08;53.48
47104;BME280;32853;52.164;5.400;2023-02-26T10:54:34;102597.00;;;6.30;53.04
47104;BME280;32853;52.164;5.400;2023-02-26T10:57:01;102599.53;;;6.20;52.60
47104;BME280;32853;52.164;5.400;2023-02-26T10:59:33;102598.97;;;6.69;51.88
47104;BME280;32853;52.164;5.400;2023-02-26T11:02:19;102584.28;;;6.79;51.93
47104;BME280;32853;52.164;5.400;2023-02-26T11:05:30;102571.03;;;6.27;51.40
47104;BME280;32853;52.164;5.400;2023-02-26T11:08:27;102597.28;;;6.87;51.34
47104;BME280;32853;52.164;5.400;2023-02-26T11:11:01;102602.44;;;6.72;50.83
47104;BME280;32853;52.164;5.400;2023-02-26T11:13:31;102595.03;;;5.93;50.20
47104;BME280;32853;52.164;5.400;2023-02-26T11:16:12;102595.34;;;6.40;50.47
47104;BME280;32853;52.164;5.400;2023-02-26T11:18:41;102608.34;;;6.41;50.47
47104;BME280;32853;52.164;5.400;2023-02-26T11:21:16;102602.44;;;6.76;51.49
47104;BME280;32853;52.164;5.400;2023-02-26T11:23:44;102601.63;;;6.86;50.52
47104;BME280;32853;52.164;5.400;2023-02-26T11:26:27;102557.41;;;6.85;50.20
47104;BME280;32853;52.164;5.400;2023-02-26T11:29:03;102606.06;;;7.16;50.08
47104;BME280;32853;52.164;5.400;2023-02-26T11:31:34;102501.69;;;6.20;50.63
47104;BME280;32853;52.164;5.400;2023-02-26T11:34:06;102580.03;;;7.18;49.52
47104;BME280;32853;52.164;5.400;2023-02-26T11:36:39;102612.19;;;7.34;48.79
47104;BME280;32853;52.164;5.400;2023-02-26T11:39:42;102579.22;;;7.43;49.37
47104;BME280;32853;52.164;5.400;2023-02-26T11:42:09;102613.94;;;7.44;48.34
47104;BME280;32853;52.164;5.400;2023-02-26T11:44:40;102604.38;;;7.52;48.80
47104;BME280;32853;52.164;5.400;2023-02-26T11:47:14;102611.34;;;7.44;48.28
47104;BME280;32853;52.164;5.400;2023-02-26T11:49:43;102620.00;;;7.52;47.47
47104;BME280;32853;52.164;5.400;2023-02-26T11:54:37;102613.94;;;7.64;48.86
47104;BME280;32853;52.164;5.400;2023-02-26T11:57:17;102554.78;;;6.69;48.64
47104;BME280;32853;52.164;5.400;2023-02-26T11:59:48;102540.09;;;6.96;49.47
47104;BME280;32853;52.164;5.400;2023-02-26T12:02:21;102561.88;;;7.36;49.33
47104;BME280;32853;52.164;5.400;2023-02-26T12:05:05;102595.75;;;7.88;49.74
47104;BME280;32853;52.164;5.400;2023-02-26T12:07:43;102602.66;;;7.72;48.28
47104;BME280;32853;52.164;5.400;2023-02-26T12:10:24;102593.97;;;7.61;48.92
47104;BME280;32853;52.164;5.400;2023-02-26T12:15:38;102608.75;;;7.57;49.30
47104;BME280;32853;52.164;5.400;2023-02-26T12:30:38;102600.03;;;8.06;49.46
47104;BME280;32853;52.164;5.400;2023-02-26T12:33:27;102590.50;;;7.97;47.74
47104;BME280;32853;52.164;5.400;2023-02-26T12:43:53;102595.66;;;8.26;47.72
47104;BME280;32853;52.164;5.400;2023-02-26T12:52:36;102595.72;;;7.99;47.10
47104;BME280;32853;52.164;5.400;2023-02-26T13:06:11;102585.06;;;8.87;47.03
47104;BME280;32853;52.164;5.400;2023-02-26T13:11:42;102609.53;;;8.50;45.66
47104;BME280;32853;52.164;5.400;2023-02-26T13:20:02;102598.31;;;8.14;46.54
47104;BME280;32853;52.164;5.400;2023-02-26T13:22:44;102588.75;;;7.85;48.28
47104;BME280;32853;52.164;5.400;2023-02-26T13:28:04;102497.59;;;7.95;47.35
47104;BME280;32853;52.164;5.400;2023-02-26T13:30:43;102575.69;;;8.28;47.71
47104;BME280;32853;52.164;5.400;2023-02-26T13:33:21;102522.78;;;7.85;49.03
47104;BME280;32853;52.164;5.400;2023-02-26T13:35:49;102592.03;;;8.88;48.39
47104;BME280;32853;52.164;5.400;2023-02-26T13:41:04;102584.25;;;8.76;47.06
47104;BME280;32853;52.164;5.400;2023-02-26T13:46:52;102447.16;;;8.06;47.42
47104;BME280;32853;52.164;5.400;2023-02-26T13:49:47;102561.56;;;8.89;46.37
47104;BME280;32853;52.164;5.400;2023-02-26T13:52:25;102588.41;;;9.08;46.62
47104;BME280;32853;52.164;5.400;2023-02-26T13:54:52;102600.84;;;8.52;46.44
47104;BME280;32853;52.164;5.400;2023-02-26T14:00:33;102571.25;;;8.67;46.78
47104;BME280;32853;52.164;5.400;2023-02-26T14:03:29;102501.06;;;7.91;46.94
47104;BME280;32853;52.164;5.400;2023-02-26T14:06:53;102576.44;;;8.64;46.56
47104;BME280;32853;52.164;5.400;2023-02-26T14:08:55;102501.69;;;8.66;46.42
47104;BME280;32853;52.164;5.400;2023-02-26T14:11:37;102573.50;;;9.29;46.78
47104;BME280;32853;52.164;5.400;2023-02-26T14:16:40;102528.78;;;8.18;46.60
47104;BME280;32853;52.164;5.400;2023-02-26T14:21:47;102592.03;;;8.82;46.27
47104;BME280;32853;52.164;5.400;2023-02-26T14:24:18;102594.50;;;9.11;45.36
47104;BME280;32853;52.164;5.400;2023-02-26T14:29:43;102406.50;;;7.61;44.12
47104;BME280;32853;52.164;5.400;2023-02-26T14:32:21;102446.31;;;8.10;45.06
47104;BME280;32853;52.164;5.400;2023-02-26T14:34:54;102592.03;;;8.87;45.30
47104;BME280;32853;52.164;5.400;2023-02-26T14:37:25;102599.06;;;8.60;46.13
47104;BME280;32853;52.164;5.400;2023-02-26T14:40:16;102596.38;;;8.88;46.57
47104;BME280;32853;52.164;5.400;2023-02-26T14:42:53;102587.59;;;8.96;47.07
47104;BME280;32853;52.164;5.400;2023-02-26T14:45:45;102585.97;;;8.74;46.33
47104;BME280;32853;52.164;5.400;2023-02-26T14:48:18;102589.38;;;8.94;45.82
47104;BME280;32853;52.164;5.400;2023-02-26T14:56:25;102587.63;;;8.98;47.21
47104;BME280;32853;52.164;5.400;2023-02-26T14:59:22;102593.50;;;9.30;46.98
47104;BME280;32853;52.164;5.400;2023-02-26T15:05:02;102599.00;;;8.76;46.71
47104;BME280;32853;52.164;5.400;2023-02-26T15:10:33;102599.13;;;8.45;46.65
47104;BME280;32853;52.164;5.400;2023-02-26T15:13:20;102601.63;;;8.76;46.59
47104;BME280;32853;52.164;5.400;2023-02-26T15:16:20;102592.94;;;8.80;47.03
47104;BME280;32853;52.164;5.400;2023-02-26T15:19:13;102601.53;;;8.94;48.09
47104;BME280;32853;52.164;5.400;2023-02-26T15:24:14;102558.28;;;8.41;47.84
47104;BME280;32853;52.164;5.400;2023-02-26T15:26:53;102602.53;;;8.68;48.07
47104;BME280;32853;52.164;5.400;2023-02-26T15:29:27;102587.88;;;8.11;48.31
47104;BME280;32853;52.164;5.400;2023-02-26T15:34:44;102607.81;;;8.50;47.38
47104;BME280;32853;52.164;5.400;2023-02-26T15:37:20;102617.41;;;8.45;47.90
47104;BME280;32853;52.164;5.400;2023-02-26T15:39:52;102594.78;;;8.27;48.00
47104;BME280;32853;52.164;5.400;2023-02-26T15:42:20;102567.03;;;8.11;49.11
47104;BME280;32853;52.164;5.400;2023-02-26T15:44:48;102599.16;;;8.16;48.97
47104;BME280;32853;52.164;5.400;2023-02-26T15:47:15;102562.72;;;7.41;48.94
47104;BME280;32853;52.164;5.400;2023-02-26T15:49:44;102567.94;;;7.63;48.84
47104;BME280;32853;52.164;5.400;2023-02-26T15:52:16;102613.97;;;7.99;49.20
47104;BME280;32853;52.164;5.400;2023-02-26T15:54:52;102610.50;;;7.78;48.98
47104;BME280;32853;52.164;5.400;2023-02-26T15:57:19;102608.75;;;8.03;49.07
47104;BME280;32853;52.164;5.400;2023-02-26T15:59:51;102555.78;;;7.63;48.32
47104;BME280;32853;52.164;5.400;2023-02-26T16:02:30;102615.69;;;7.58;49.56
47104;BME280;32853;52.164;5.400;2023-02-26T16:05:04;102600.06;;;7.72;49.94
47104;BME280;32853;52.164;5.400;2023-02-26T16:07:30;102562.72;;;7.27;50.37
47104;BME280;32853;52.164;5.400;2023-02-26T16:09:56;102620.00;;;7.50;50.85
47104;BME280;32853;52.164;5.400;2023-02-26T16:12:42;102613.03;;;7.25;51.40
47104;BME280;32853;52.164;5.400;2023-02-26T16:15:16;102558.34;;;7.04;51.35
47104;BME280;32853;52.164;5.400;2023-02-26T16:17:47;102561.81;;;7.03;51.54
47104;BME280;32853;52.164;5.400;2023-02-26T16:20:22;102600.88;;;7.22;51.79